To NAV CANADA Home Page Login to a new session Search on AWWS site Feedback and Comments Disclaimer Vers la page française équivalente Tips FAQ What's new on the site To the Forecasts and Observations / NOTAM section To "File a Flight Plan" website Publications and other links Update of the User's profile FIC Telephone Numbers My Weather Data Folder Route Weather Data Regional Weather Data Local Weather Data To the Forecasts and Observations / NOTAM section
Request Generated 07/24/2016 at 02:57:04 UTC . Weather information available at that time is displayed.

METAR/TAF

MONTREAL/ST-HUBERT/QC    (show WxCam)

METAR CYHU 240200Z AUTO 26007KT 9SM FEW060 20/20 A2988 RMK SLP119
DENSITY ALT 700FT=
METAR CYHU 240100Z AUTO 24007KT 9SM BKN110 21/20 A2985 RMK SLP108
DENSITY ALT 800FT=
METAR CYHU 240000Z AUTO 24007KT 9SM BKN100 OVC120 21/20 A2983 RMK
SLP102 DENSITY ALT 900FT=

TAF CYHU 232338Z 2400/2424 24010KT P6SM FEW015 SCT040
FM240300 33007KT P6SM FEW050
BECMG 2415/2417 24010KT
FM242300 22008KT P6SM OVC140
RMK FCST BASED ON AUTO OBS. NXT FCST BY 240600Z=
Your time UTC time
Weather data provided by Environment Canada and NAV CANADA